CheckWX is a tool to help pilots better visualize weather data.  It is not intended as a substitute for an official pre-flight weather briefing.

01:32:14 UTC

PALH METAR
Lake Hood Seaplane Base
Anchorage, Alaska, USA
Current

39 mins ago

PALH 190053Z 04024G31KT 10SM CLR 20/M02 A2996 RMK AO2 PK WND 07033/0014 SLP146 T02001022
Observed
Aug-19 @ 00:53 UTC
Wind
  • 040° at 24 KTS
  • Gusting to 31 KTS
Visibility
10 SM
Flight Rules
VFR
Cloud Levels
  • Clear skies
Temperature
20°C / 68°F
Dewpoint
-2°C / 28°F
Humidity
23%
Altimeter
29.96" Hg
Pressure
1014.52 hPa
Previous

2 hours ago

PALH 182353Z 05021G32KT 10SM CLR 19/M02 A2998 RMK AO2 PK WND 04038/2258 SLP154 T01941022 10200 20156 58008
Observed
Aug-18 @ 23:53 UTC
Wind
  • 050° at 21 KTS
  • Gusting to 32 KTS
Visibility
10 SM
Flight Rules
VFR
Cloud Levels
  • Clear skies
Temperature
19°C / 66°F
Dewpoint
-2°C / 28°F
Humidity
24%
Altimeter
29.98" Hg
Pressure
1015.22 hPa
Previous

3 hours ago

PALH 182253Z 04021G31KT 10SM CLR 19/M01 A3000 RMK AO2 PK WND 03035/2208 SLP158 T01891006
Observed
Aug-18 @ 22:53 UTC
Wind
  • 040° at 21 KTS
  • Gusting to 31 KTS
Visibility
10 SM
Flight Rules
VFR
Cloud Levels
  • Clear skies
Temperature
19°C / 66°F
Dewpoint
-1°C / 30°F
Humidity
26%
Altimeter
30" Hg
Pressure
1015.92 hPa